createdAt,value
2023-03-19T00:03:03.588Z,8.33
2023-03-19T00:08:08.872Z,9.90
2023-03-19T00:13:13.973Z,9.47
2023-03-19T00:18:19.059Z,9.20
2023-03-19T00:23:24.331Z,9.60
2023-03-19T00:28:30.069Z,9.27
2023-03-19T00:33:35.130Z,6.73
2023-03-19T00:38:40.536Z,8.03
2023-03-19T00:43:46.590Z,9.00
2023-03-19T00:48:53.562Z,9.47
2023-03-19T00:53:58.677Z,9.43
2023-03-19T00:59:03.791Z,8.43
2023-03-19T01:04:09.907Z,8.83
2023-03-19T01:09:15.600Z,7.60
2023-03-19T01:14:20.703Z,9.37
2023-03-19T01:19:25.898Z,9.63
2023-03-19T01:24:32.390Z,8.57
2023-03-19T01:29:38.216Z,9.43
2023-03-19T01:34:43.748Z,9.17
2023-03-19T01:39:49.028Z,9.50
2023-03-19T01:44:54.633Z,8.57
2023-03-19T01:50:01.387Z,10.20
2023-03-19T01:55:07.671Z,9.20
2023-03-19T02:00:14.635Z,9.37
2023-03-19T02:05:23.173Z,8.33
2023-03-19T02:10:29.710Z,10.53
2023-03-19T02:15:34.929Z,9.63
2023-03-19T02:20:46.710Z,9.53
2023-03-19T02:25:57.494Z,9.50
2023-03-19T02:31:02.806Z,9.70
2023-03-19T02:36:13.604Z,10.43
2023-03-19T02:41:19.653Z,9.83
2023-03-19T02:46:25.582Z,8.50
2023-03-19T02:51:30.849Z,8.27
2023-03-19T02:56:37.085Z,9.50
2023-03-19T03:01:42.334Z,9.20
2023-03-19T03:06:47.408Z,10.37
2023-03-19T03:11:52.680Z,10.07
2023-03-19T03:16:58.779Z,8.23
2023-03-19T03:22:08.313Z,13.20
2023-03-19T03:27:13.544Z,11.70
2023-03-19T03:32:18.865Z,10.57
2023-03-19T03:37:24.131Z,7.90
2023-03-19T03:42:29.248Z,7.87
2023-03-19T03:47:34.469Z,8.77
2023-03-19T03:52:41.328Z,8.60
2023-03-19T03:57:46.541Z,9.37
2023-03-19T04:02:54.027Z,9.97
2023-03-19T04:07:59.332Z,9.77
2023-03-19T04:13:04.880Z,10.50
2023-03-19T04:18:10.060Z,8.53
2023-03-19T04:23:15.154Z,9.97
2023-03-19T04:28:20.415Z,10.67
2023-03-19T04:33:25.657Z,12.80
2023-03-19T04:38:32.450Z,11.87
2023-03-19T04:43:37.795Z,11.43
2023-03-19T04:48:43.646Z,10.83
2023-03-19T04:53:49.904Z,10.77
2023-03-19T04:58:55.239Z,11.13
2023-03-19T05:04:00.576Z,11.03
2023-03-19T05:09:08.020Z,8.80
2023-03-19T05:14:13.757Z,8.50
2023-03-19T05:19:18.790Z,10.13
2023-03-19T05:24:24.625Z,9.03
2023-03-19T05:29:29.791Z,7.63
2023-03-19T05:34:34.959Z,8.63
2023-03-19T05:39:40.109Z,8.97
2023-03-19T05:44:45.259Z,10.57
2023-03-19T05:49:51.439Z,10.17
2023-03-19T05:54:56.854Z,9.47
2023-03-19T06:00:02.085Z,10.80
2023-03-19T06:05:07.638Z,9.97
2023-03-19T06:10:13.366Z,10.40
2023-03-19T06:15:18.749Z,10.43
2023-03-19T06:20:23.970Z,10.70
2023-03-19T06:25:29.151Z,11.77
2023-03-19T06:30:35.184Z,11.97
2023-03-19T06:35:41.802Z,14.67
2023-03-19T06:40:47.103Z,14.83
2023-03-19T06:45:52.257Z,15.13
2023-03-19T06:50:57.996Z,15.63
2023-03-19T06:56:03.671Z,20.77
2023-03-19T07:01:09.679Z,19.87
2023-03-19T07:06:14.927Z,30.77
2023-03-19T07:11:20.082Z,14.77
2023-03-19T07:16:25.483Z,12.10
2023-03-19T07:21:31.456Z,13.83
2023-03-19T07:26:36.777Z,11.30
2023-03-19T07:31:42.546Z,11.13
2023-03-19T07:36:47.735Z,10.37
2023-03-19T07:41:52.995Z,12.07
2023-03-19T07:46:58.255Z,10.60
2023-03-19T07:52:05.072Z,11.17
2023-03-19T07:57:10.279Z,11.67
2023-03-19T08:02:16.267Z,11.83
2023-03-19T08:07:22.041Z,11.83
2023-03-19T08:12:27.228Z,12.40
2023-03-19T08:17:34.142Z,12.63
2023-03-19T08:22:40.829Z,13.07
2023-03-19T08:27:46.051Z,15.13
2023-03-19T08:32:51.423Z,13.10
2023-03-19T08:37:57.469Z,14.00
2023-03-19T08:43:03.496Z,12.77
2023-03-19T08:48:08.698Z,13.23
2023-03-19T08:53:13.763Z,14.60
2023-03-19T08:58:18.904Z,14.10
2023-03-19T09:03:24.157Z,13.87
2023-03-19T09:08:31.048Z,11.30
2023-03-19T09:13:36.879Z,13.10
2023-03-19T09:18:43.304Z,12.40
2023-03-19T09:23:48.592Z,13.43
2023-03-19T09:28:53.884Z,13.70
2023-03-19T09:33:59.088Z,13.63
2023-03-19T09:39:06.604Z,14.60
2023-03-19T09:44:32.881Z,12.20
2023-03-19T09:49:41.699Z,13.70
2023-03-19T09:54:51.532Z,13.03
2023-03-19T09:59:57.386Z,15.07
2023-03-19T10:05:14.232Z,13.53
2023-03-19T10:10:48.613Z,12.00
2023-03-19T10:15:56.872Z,13.77
2023-03-19T10:21:09.177Z,10.03
2023-03-19T10:26:17.388Z,11.03
2023-03-19T10:31:38.046Z,11.77
2023-03-19T10:36:43.262Z,13.43
2023-03-19T10:41:54.222Z,11.97
2023-03-19T10:47:02.501Z,14.80
2023-03-19T10:52:27.147Z,14.37
2023-03-19T10:57:34.045Z,13.23
2023-03-19T11:02:40.789Z,11.07
2023-03-19T11:07:47.793Z,9.30
2023-03-19T11:12:58.622Z,9.27
2023-03-19T11:18:40.222Z,9.70
2023-03-19T11:23:45.900Z,9.70
2023-03-19T11:28:53.207Z,9.43
2023-03-19T11:34:19.239Z,10.70
2023-03-19T11:39:33.372Z,9.57
2023-03-19T11:44:44.463Z,8.77
2023-03-19T11:50:01.667Z,10.23
2023-03-19T11:55:16.016Z,8.97
2023-03-19T12:00:33.583Z,9.73
2023-03-19T12:05:58.332Z,8.27
2023-03-19T12:11:22.159Z,8.90
2023-03-19T12:16:33.631Z,7.57
2023-03-19T12:22:19.584Z,8.63
2023-03-19T12:27:53.643Z,9.47
2023-03-19T12:33:21.107Z,11.33
2023-03-19T12:38:29.268Z,10.27
2023-03-19T12:43:55.335Z,11.30
2023-03-19T12:49:06.657Z,10.17
2023-03-19T12:54:23.525Z,9.70
2023-03-19T12:59:46.552Z,9.83
2023-03-19T13:04:58.280Z,10.50
2023-03-19T13:10:08.852Z,11.07
2023-03-19T13:15:33.324Z,10.53
2023-03-19T13:20:50.429Z,10.30
2023-03-19T13:25:59.272Z,10.57
2023-03-19T13:31:10.094Z,11.20
2023-03-19T13:36:17.588Z,10.23
2023-03-19T13:41:41.907Z,10.57
2023-03-19T13:46:47.199Z,7.73
2023-03-19T13:51:54.507Z,8.17
2023-03-19T13:57:07.215Z,8.77
2023-03-19T14:02:27.532Z,9.57
2023-03-19T14:07:40.775Z,9.47
2023-03-19T14:12:46.934Z,8.83
2023-03-19T14:17:58.524Z,10.70
2023-03-19T14:23:23.529Z,10.53
2023-03-19T14:28:45.727Z,10.13
2023-03-19T14:34:13.534Z,10.23
2023-03-19T14:39:31.611Z,11.47
2023-03-19T14:44:48.528Z,11.10
2023-03-19T14:49:59.686Z,10.80
2023-03-19T14:55:13.788Z,10.63
2023-03-19T15:00:20.577Z,9.93
2023-03-19T15:05:33.330Z,10.70
2023-03-19T15:11:16.974Z,9.83
2023-03-19T15:16:31.022Z,9.70
2023-03-19T15:21:37.786Z,10.90
2023-03-19T15:26:43.038Z,10.63
2023-03-19T15:32:02.467Z,11.40
2023-03-19T15:37:04.247Z,11.60
2023-03-19T15:42:09.729Z,10.90
2023-03-19T15:47:20.650Z,10.03
2023-03-19T15:52:27.132Z,12.07
2023-03-19T15:57:32.817Z,12.13
2023-03-19T16:02:43.312Z,11.17
2023-03-19T16:07:53.211Z,11.23
2023-03-19T16:13:01.473Z,12.97
2023-03-19T16:18:21.745Z,20.60
2023-03-19T16:23:35.543Z,13.87
2023-03-19T16:28:45.344Z,14.37
2023-03-19T16:33:54.244Z,14.80
2023-03-19T16:39:19.685Z,18.90
2023-03-19T16:44:30.223Z,14.93
2023-03-19T16:49:34.718Z,16.40
2023-03-19T16:54:39.785Z,15.47
2023-03-19T16:59:47.870Z,12.80
2023-03-19T17:04:53.490Z,12.07
2023-03-19T17:09:59.867Z,13.73
2023-03-19T17:15:06.219Z,12.17
2023-03-19T17:20:24.579Z,14.53
2023-03-19T17:25:29.828Z,11.93
2023-03-19T17:30:35.947Z,14.07
2023-03-19T17:35:41.596Z,13.23
2023-03-19T17:40:48.024Z,13.70
2023-03-19T17:45:54.759Z,14.57
2023-03-19T17:51:02.467Z,14.30
2023-03-19T17:56:07.804Z,16.57
2023-03-19T18:01:21.654Z,16.37
2023-03-19T18:06:29.481Z,17.27
2023-03-19T18:11:34.557Z,20.63
2023-03-19T18:16:40.886Z,25.80
2023-03-19T18:21:46.236Z,20.17
2023-03-19T18:26:51.539Z,15.83
2023-03-19T18:31:59.781Z,16.27
2023-03-19T18:37:06.543Z,15.43
2023-03-19T18:42:14.417Z,14.90
2023-03-19T18:47:19.843Z,15.33
2023-03-19T18:52:25.098Z,15.43
2023-03-19T18:57:31.510Z,15.07
2023-03-19T19:02:37.732Z,24.43
2023-03-19T19:07:43.235Z,28.80
2023-03-19T19:12:52.479Z,28.40
2023-03-19T19:17:58.434Z,23.50
2023-03-19T19:23:03.537Z,21.63
2023-03-19T19:28:14.986Z,22.00
2023-03-19T19:33:23.077Z,21.37
2023-03-19T19:38:28.723Z,24.13
2023-03-19T19:43:34.007Z,21.57
2023-03-19T19:48:39.769Z,23.87
2023-03-19T19:53:44.991Z,24.50
2023-03-19T19:58:53.205Z,26.60
2023-03-19T20:03:58.578Z,27.70
2023-03-19T20:09:03.980Z,25.63
2023-03-19T20:14:12.117Z,21.17
2023-03-19T20:19:20.460Z,22.80
2023-03-19T20:24:26.230Z,20.47
2023-03-19T20:29:34.382Z,20.40
2023-03-19T20:34:39.917Z,29.47
2023-03-19T20:39:48.449Z,30.90
2023-03-19T20:44:57.677Z,34.07
2023-03-19T20:50:02.834Z,35.20
2023-03-19T20:55:08.558Z,34.10
2023-03-19T21:00:23.115Z,32.43
2023-03-19T21:05:39.542Z,30.13
2023-03-19T21:10:46.361Z,32.20
2023-03-19T21:15:51.978Z,33.60
2023-03-19T21:20:58.991Z,34.57
2023-03-19T21:26:10.183Z,35.00
2023-03-19T21:31:20.922Z,35.13
2023-03-19T21:36:27.991Z,41.00
2023-03-19T21:41:35.302Z,43.93
2023-03-19T21:46:41.236Z,49.33
2023-03-19T21:51:47.137Z,39.43
2023-03-19T21:56:52.472Z,35.17
2023-03-19T22:01:58.118Z,32.07
2023-03-19T22:07:03.355Z,29.67
2023-03-19T22:12:11.791Z,34.10
2023-03-19T22:17:17.031Z,34.87
2023-03-19T22:22:22.047Z,33.60
2023-03-19T22:27:27.276Z,35.40
2023-03-19T22:32:32.367Z,35.90
2023-03-19T22:37:38.157Z,31.27
2023-03-19T22:42:44.116Z,31.17
2023-03-19T22:47:49.695Z,25.73
2023-03-19T22:52:55.148Z,24.43
2023-03-19T22:58:00.445Z,25.10
2023-03-19T23:03:08.598Z,24.33
2023-03-19T23:08:18.603Z,22.73
2023-03-19T23:13:24.291Z,25.90
2023-03-19T23:18:35.148Z,25.47
2023-03-19T23:23:40.493Z,25.03
2023-03-19T23:28:46.965Z,23.93
2023-03-19T23:33:52.314Z,24.83
2023-03-19T23:38:59.299Z,24.80
2023-03-19T23:44:06.795Z,24.40
2023-03-19T23:49:14.887Z,24.53
2023-03-19T23:54:27.712Z,23.60
2023-03-19T23:59:36.196Z,23.27
